createdAt,value
2023-04-11T00:01:21.206Z,100697.06
2023-04-11T00:04:11.218Z,100691.09
2023-04-11T00:06:58.235Z,100691.81
2023-04-11T00:09:45.100Z,100683.47
2023-04-11T00:12:31.938Z,100676.94
2023-04-11T00:15:20.171Z,100676.72
2023-04-11T00:18:09.236Z,100669.72
2023-04-11T00:20:55.799Z,100669.28
2023-04-11T00:23:42.656Z,100657.78
2023-04-11T00:26:29.513Z,100647.06
2023-04-11T00:29:16.242Z,100647.66
2023-04-11T00:32:02.904Z,100646.34
2023-04-11T00:34:51.541Z,100647.50
2023-04-11T00:37:38.193Z,100646.41
2023-04-11T00:40:25.092Z,100641.31
2023-04-11T00:43:12.078Z,100636.41
2023-04-11T00:45:58.875Z,100633.88
2023-04-11T00:48:45.795Z,100631.09
2023-04-11T00:51:33.966Z,100620.72
2023-04-11T00:54:20.667Z,100615.41
2023-04-11T00:57:08.868Z,100618.06
2023-04-11T00:59:55.811Z,100610.00
2023-04-11T01:02:45.362Z,100595.63
2023-04-11T01:05:33.242Z,100596.84
2023-04-11T01:08:22.508Z,100586.34
2023-04-11T01:11:10.723Z,100596.78
2023-04-11T01:13:58.237Z,100594.13
2023-04-11T01:16:47.131Z,100588.50
2023-04-11T01:19:34.372Z,100581.72
2023-04-11T01:22:23.926Z,100571.59
2023-04-11T01:25:12.363Z,100569.97
2023-04-11T01:27:59.461Z,100567.06
2023-04-11T01:30:46.566Z,100560.75
2023-04-11T01:33:33.104Z,100539.84
2023-04-11T01:36:20.202Z,100527.13
2023-04-11T01:39:06.757Z,100516.84
2023-04-11T01:41:55.150Z,100476.22
2023-04-11T01:44:42.709Z,100516.19
2023-04-11T01:47:29.335Z,100518.19
2023-04-11T01:50:16.046Z,100501.75
2023-04-11T01:53:02.895Z,100492.03
2023-04-11T01:55:49.749Z,100489.03
2023-04-11T01:58:37.964Z,100477.66
2023-04-11T02:01:24.606Z,100474.94
2023-04-11T02:04:11.892Z,100463.28
2023-04-11T02:07:00.911Z,100457.19
2023-04-11T02:09:47.622Z,100443.44
2023-04-11T02:12:34.622Z,100448.34
2023-04-11T02:15:22.499Z,100443.16
2023-04-11T02:18:10.039Z,100444.09
2023-04-11T02:20:56.464Z,100433.75
2023-04-11T02:23:43.098Z,100428.34
2023-04-11T02:26:29.912Z,100427.13
2023-04-11T02:29:16.705Z,100413.03
2023-04-11T02:32:05.175Z,100415.53
2023-04-11T02:34:51.807Z,100406.19
2023-04-11T02:37:38.590Z,100400.50
2023-04-11T02:40:25.275Z,100400.97
2023-04-11T02:43:12.306Z,100394.69
2023-04-11T02:46:11.719Z,100394.25
2023-04-11T02:49:02.737Z,100387.44
2023-04-11T02:51:49.725Z,100385.16
2023-04-11T02:54:36.394Z,100384.38
2023-04-11T02:57:23.198Z,100387.25
2023-04-11T03:00:11.058Z,100372.72
2023-04-11T03:03:06.617Z,100388.59
2023-04-11T03:06:00.206Z,100379.91
2023-04-11T03:08:47.592Z,100378.88
2023-04-11T03:11:34.276Z,100373.25
2023-04-11T03:14:22.940Z,100375.03
2023-04-11T03:17:09.841Z,100363.81
2023-04-11T03:19:56.692Z,100369.03
2023-04-11T03:22:45.548Z,100362.06
2023-04-11T03:25:32.570Z,100358.47
2023-04-11T03:28:21.799Z,100361.03
2023-04-11T03:31:09.036Z,100354.78
2023-04-11T03:33:55.718Z,100355.09
2023-04-11T03:36:43.033Z,100354.78
2023-04-11T03:39:31.193Z,100351.75
2023-04-11T03:42:18.912Z,100344.47
2023-04-11T03:45:10.158Z,100337.88
2023-04-11T03:47:56.849Z,100331.81
2023-04-11T03:50:48.960Z,100334.97
2023-04-11T03:53:39.892Z,100338.88
2023-04-11T03:56:43.852Z,100320.69
2023-04-11T03:59:37.609Z,100331.53
2023-04-11T04:02:29.734Z,100329.16
2023-04-11T04:05:17.286Z,100328.75
2023-04-11T04:08:04.549Z,100330.00
2023-04-11T04:11:02.042Z,100322.50
2023-04-11T04:13:52.805Z,100314.81
2023-04-11T04:16:40.483Z,100304.28
2023-04-11T04:19:27.998Z,100308.34
2023-04-11T04:22:17.842Z,100311.41
2023-04-11T04:25:12.836Z,100319.69
2023-04-11T04:28:01.074Z,100315.59
2023-04-11T04:30:58.263Z,100312.50
2023-04-11T04:33:49.592Z,100300.00
2023-04-11T04:36:49.387Z,100298.63
2023-04-11T04:39:43.481Z,100302.16
2023-04-11T04:42:36.096Z,100312.34
2023-04-11T04:45:25.397Z,100301.16
2023-04-11T04:48:15.028Z,100302.09
2023-04-11T04:51:01.653Z,100304.09
2023-04-11T04:53:48.840Z,100298.72
2023-04-11T04:56:35.757Z,100305.75
2023-04-11T04:59:23.126Z,100303.31
2023-04-11T05:02:17.357Z,100307.69
2023-04-11T05:05:08.258Z,100295.22
2023-04-11T05:07:55.139Z,100297.00
2023-04-11T05:10:41.935Z,100212.53
2023-04-11T05:13:34.803Z,100285.66
2023-04-11T05:16:23.162Z,100285.38
2023-04-11T05:19:10.061Z,100293.66
2023-04-11T05:22:02.469Z,100300.94
2023-04-11T05:24:51.094Z,100295.72
2023-04-11T05:27:38.023Z,100294.22
2023-04-11T05:30:24.966Z,100293.03
2023-04-11T05:33:12.976Z,100283.00
2023-04-11T05:36:01.802Z,100290.31
2023-04-11T05:38:49.769Z,100285.34
2023-04-11T05:41:36.334Z,100281.56
2023-04-11T05:44:23.655Z,100282.56
2023-04-11T05:47:11.667Z,100284.28
2023-04-11T05:49:58.823Z,100280.28
2023-04-11T05:52:45.695Z,100281.22
2023-04-11T05:55:33.839Z,100285.53
2023-04-11T05:58:20.723Z,100288.91
2023-04-11T06:01:12.435Z,100284.66
2023-04-11T06:03:59.835Z,100292.22
2023-04-11T06:06:46.721Z,100290.25
2023-04-11T06:09:34.148Z,100283.88
2023-04-11T06:12:22.222Z,100292.56
2023-04-11T06:15:11.960Z,100294.88
2023-04-11T06:17:58.417Z,100294.16
2023-04-11T06:20:46.346Z,100297.47
2023-04-11T06:23:33.173Z,100295.09
2023-04-11T06:26:19.956Z,100297.22
2023-04-11T06:29:08.572Z,100288.06
2023-04-11T06:31:55.603Z,100284.25
2023-04-11T06:34:42.568Z,100282.84
2023-04-11T06:37:29.027Z,100286.69
2023-04-11T06:40:17.318Z,100279.19
2023-04-11T06:43:04.241Z,100285.72
2023-04-11T06:45:52.911Z,100254.25
2023-04-11T06:48:39.564Z,100285.72
2023-04-11T06:51:26.706Z,100283.78
2023-04-11T06:54:13.326Z,100280.28
2023-04-11T06:57:00.134Z,100276.19
2023-04-11T06:59:46.926Z,100278.84
2023-04-11T07:02:36.023Z,100280.84
2023-04-11T07:05:34.919Z,100285.66
2023-04-11T07:08:25.138Z,100282.00
2023-04-11T07:11:17.292Z,100279.97
2023-04-11T07:14:06.117Z,100281.13
2023-04-11T07:16:56.257Z,100284.94
2023-04-11T07:19:46.076Z,100284.31
2023-04-11T07:22:37.034Z,100283.66
2023-04-11T07:25:31.013Z,100286.44
2023-04-11T07:28:18.743Z,100287.09
2023-04-11T07:31:06.106Z,100279.41
2023-04-11T07:33:52.601Z,100280.19
2023-04-11T07:36:41.967Z,100288.44
2023-04-11T07:39:28.772Z,100291.53
2023-04-11T07:42:15.480Z,100293.09
2023-04-11T07:45:02.244Z,100294.97
2023-04-11T07:47:49.340Z,100298.94
2023-04-11T07:50:35.819Z,100301.06
2023-04-11T07:53:24.155Z,100309.13
2023-04-11T07:56:11.557Z,100303.03
2023-04-11T07:58:58.658Z,100308.91
2023-04-11T08:01:47.961Z,100309.50
2023-04-11T08:04:37.116Z,100308.34
2023-04-11T08:07:23.927Z,100302.75
2023-04-11T08:10:12.411Z,100303.38
2023-04-11T08:12:59.555Z,100299.56
2023-04-11T08:15:46.782Z,100308.03
2023-04-11T08:18:33.459Z,100307.03
2023-04-11T08:21:20.088Z,100308.34
2023-04-11T08:24:07.241Z,100311.28
2023-04-11T08:26:55.143Z,100305.44
2023-04-11T08:29:41.839Z,100311.53
2023-04-11T08:32:28.890Z,100305.81
2023-04-11T08:35:15.764Z,100301.22
2023-04-11T08:38:02.421Z,100311.63
2023-04-11T08:40:49.246Z,100304.38
2023-04-11T08:43:40.100Z,100314.09
2023-04-11T08:46:27.117Z,100307.69
2023-04-11T08:49:13.785Z,100306.19
2023-04-11T08:52:01.937Z,100308.84
2023-04-11T08:54:49.038Z,100316.53
2023-04-11T08:57:38.265Z,100312.50
2023-04-11T09:00:29.119Z,100324.72
2023-04-11T09:03:18.148Z,100312.50
2023-04-11T09:06:11.493Z,100307.75
2023-04-11T09:08:59.167Z,100319.19
2023-04-11T09:11:53.094Z,100310.50
2023-04-11T09:14:39.789Z,100314.53
2023-04-11T09:17:42.589Z,100320.53
2023-04-11T09:20:30.597Z,100333.91
2023-04-11T09:23:26.733Z,100334.69
2023-04-11T09:26:27.550Z,100331.41
2023-04-11T09:29:36.039Z,100328.75
2023-04-11T09:32:33.498Z,100335.38
2023-04-11T09:35:22.909Z,100332.50
2023-04-11T09:38:09.797Z,100322.66
2023-04-11T09:40:57.123Z,100324.06
2023-04-11T09:43:51.505Z,100326.97
2023-04-11T09:46:38.476Z,100316.50
2023-04-11T09:49:27.149Z,100313.69
2023-04-11T09:52:14.302Z,100312.88
2023-04-11T09:55:01.850Z,100312.06
2023-04-11T09:57:51.029Z,100301.91
2023-04-11T10:00:38.697Z,100310.59
2023-04-11T10:03:26.578Z,100317.69
2023-04-11T10:06:22.482Z,100307.94
2023-04-11T10:09:11.306Z,100319.47
2023-04-11T10:11:58.283Z,100315.59
2023-04-11T10:14:48.261Z,100325.50
2023-04-11T10:17:35.279Z,100318.78
2023-04-11T10:20:45.107Z,100324.28
2023-04-11T10:24:16.316Z,100319.03
2023-04-11T10:27:04.805Z,100317.41
2023-04-11T10:29:53.266Z,100320.66
2023-04-11T10:32:40.995Z,100318.72
2023-04-11T10:35:29.620Z,100326.97
2023-04-11T10:38:51.247Z,100319.41
2023-04-11T10:41:38.148Z,100319.56
2023-04-11T10:44:25.079Z,100314.53
2023-04-11T10:47:18.759Z,100299.38
2023-04-11T10:50:26.216Z,100302.38
2023-04-11T10:53:36.658Z,100303.97
2023-04-11T10:56:58.137Z,100297.56
2023-04-11T11:00:00.871Z,100286.59
2023-04-11T11:02:52.329Z,100276.59
2023-04-11T11:05:40.548Z,100280.97
2023-04-11T11:08:31.468Z,100280.88
2023-04-11T11:11:19.429Z,100276.88
2023-04-11T11:14:09.159Z,100284.13
2023-04-11T11:16:55.777Z,100286.03
2023-04-11T11:19:44.988Z,100288.28
2023-04-11T11:22:31.372Z,100278.72
2023-04-11T11:25:19.397Z,100289.63
2023-04-11T11:28:07.914Z,100327.44
2023-04-11T11:30:57.528Z,100322.38
2023-04-11T11:33:44.404Z,100311.25
2023-04-11T11:36:33.000Z,100321.25
2023-04-11T11:39:21.297Z,100331.56
2023-04-11T11:42:09.529Z,100324.22
2023-04-11T11:45:14.478Z,100317.59
2023-04-11T11:48:02.872Z,100309.69
2023-04-11T11:50:57.120Z,100311.31
2023-04-11T11:53:43.866Z,100311.75
2023-04-11T11:56:30.624Z,100312.50
2023-04-11T11:59:27.801Z,100321.38
2023-04-11T12:02:17.310Z,100319.81
2023-04-11T12:05:07.822Z,100324.09
2023-04-11T12:07:55.957Z,100343.56
2023-04-11T12:10:43.847Z,100361.47
2023-04-11T12:13:32.418Z,100380.19
2023-04-11T12:16:23.128Z,100391.22
2023-04-11T12:19:10.308Z,100396.69
2023-04-11T12:21:58.210Z,100405.00
2023-04-11T12:24:45.141Z,100410.09
2023-04-11T12:27:33.154Z,100406.94
2023-04-11T12:30:19.582Z,100400.50
2023-04-11T12:33:06.543Z,100398.91
2023-04-11T12:35:53.342Z,100407.47
2023-04-11T12:38:41.430Z,100419.88
2023-04-11T12:41:31.664Z,100415.38
2023-04-11T12:44:19.487Z,100422.75
2023-04-11T12:47:06.727Z,100424.31
2023-04-11T12:49:53.452Z,100415.66
2023-04-11T12:52:40.302Z,100421.31
2023-04-11T12:55:28.818Z,100423.91
2023-04-11T12:58:15.881Z,100414.84
2023-04-11T13:01:05.708Z,100416.56
2023-04-11T13:03:52.243Z,100410.38
2023-04-11T13:06:38.977Z,100405.78
2023-04-11T13:09:25.813Z,100408.00
2023-04-11T13:12:13.869Z,100404.28
2023-04-11T13:15:01.284Z,100365.56
2023-04-11T13:17:48.199Z,100399.91
2023-04-11T13:20:34.745Z,100404.56
2023-04-11T13:23:21.496Z,100401.31
2023-04-11T13:26:09.151Z,100406.66
2023-04-11T13:28:58.005Z,100408.13
2023-04-11T13:31:44.821Z,100401.94
2023-04-11T13:34:31.684Z,100401.25
2023-04-11T13:37:18.476Z,100424.84
2023-04-11T13:40:08.465Z,100422.16
2023-04-11T13:42:56.160Z,100451.44
2023-04-11T13:45:44.590Z,100469.50
2023-04-11T13:48:31.413Z,100491.34
2023-04-11T13:51:18.014Z,100493.38
2023-04-11T13:54:05.078Z,100503.69
2023-04-11T13:56:51.965Z,100515.13
2023-04-11T13:59:38.833Z,100517.47
2023-04-11T14:02:27.181Z,100532.41
2023-04-11T14:05:14.453Z,100524.09
2023-04-11T14:08:01.143Z,100536.41
2023-04-11T14:10:47.790Z,100540.25
2023-04-11T14:13:34.660Z,100550.13
2023-04-11T14:16:21.389Z,100539.97
2023-04-11T14:19:09.518Z,100537.03
2023-04-11T14:21:57.937Z,100545.38
2023-04-11T14:24:44.925Z,100546.25
2023-04-11T14:27:31.722Z,100551.38
2023-04-11T14:30:18.561Z,100553.44
2023-04-11T14:33:05.535Z,100547.09
2023-04-11T14:35:53.602Z,100546.28
2023-04-11T14:38:40.322Z,100542.84
2023-04-11T14:41:27.185Z,100539.44
2023-04-11T14:44:14.036Z,100539.84
2023-04-11T14:47:00.472Z,100531.22
2023-04-11T14:49:47.240Z,100521.31
2023-04-11T14:52:35.402Z,100527.19
2023-04-11T14:55:22.133Z,100525.91
2023-04-11T14:58:09.018Z,100514.34
2023-04-11T15:00:56.029Z,100512.94
2023-04-11T15:03:42.717Z,100503.09
2023-04-11T15:06:30.748Z,100508.56
2023-04-11T15:09:21.162Z,100513.88
2023-04-11T15:12:07.662Z,100515.47
2023-04-11T15:14:54.420Z,100516.47
2023-04-11T15:17:42.970Z,100519.19
2023-04-11T15:20:29.399Z,100513.13
2023-04-11T15:23:16.477Z,100510.34
2023-04-11T15:26:04.997Z,100522.47
2023-04-11T15:28:52.283Z,100520.25
2023-04-11T15:31:39.070Z,100513.44
2023-04-11T15:34:26.610Z,100514.13
2023-04-11T15:37:13.299Z,100516.22
2023-04-11T15:40:00.206Z,100508.50
2023-04-11T15:42:49.863Z,100510.59
2023-04-11T15:45:38.124Z,100505.84
2023-04-11T15:48:24.997Z,100503.53
2023-04-11T15:51:14.223Z,100506.34
2023-04-11T15:54:00.620Z,100511.53
2023-04-11T15:56:47.360Z,100497.97
2023-04-11T15:59:38.081Z,100509.56
2023-04-11T16:02:24.850Z,100511.06
2023-04-11T16:05:11.734Z,100524.97
2023-04-11T16:07:58.399Z,100521.81
2023-04-11T16:10:45.175Z,100527.03
2023-04-11T16:13:31.991Z,100527.03
2023-04-11T16:16:20.130Z,100526.84
2023-04-11T16:19:07.486Z,100531.47
2023-04-11T16:21:54.423Z,100530.91
2023-04-11T16:24:41.188Z,100538.00
2023-04-11T16:27:27.983Z,100540.47
2023-04-11T16:30:15.051Z,100553.41
2023-04-11T16:33:02.968Z,100546.91
2023-04-11T16:35:49.636Z,100556.78
2023-04-11T16:38:36.253Z,100552.34
2023-04-11T16:41:22.994Z,100552.91
2023-04-11T16:44:11.517Z,100557.22
2023-04-11T16:46:58.204Z,100555.06
2023-04-11T16:49:47.141Z,100560.50
2023-04-11T16:52:33.903Z,100562.88
2023-04-11T16:55:20.567Z,100555.00
2023-04-11T16:58:08.894Z,100555.41
2023-04-11T17:00:55.921Z,100509.75
2023-04-11T17:03:43.275Z,100570.16
2023-04-11T17:06:31.544Z,100556.72
2023-04-11T17:09:19.225Z,100561.53
2023-04-11T17:12:06.275Z,100558.53
2023-04-11T17:14:55.256Z,100555.78
2023-04-11T17:17:42.121Z,100554.16
2023-04-11T17:20:28.918Z,100549.91
2023-04-11T17:23:17.084Z,100566.53
2023-04-11T17:26:04.399Z,100566.94
2023-04-11T17:28:51.877Z,100568.38
2023-04-11T17:31:38.675Z,100568.66
2023-04-11T17:34:25.524Z,100561.63
2023-04-11T17:37:12.456Z,100580.72
2023-04-11T17:40:00.933Z,100581.88
2023-04-11T17:42:47.955Z,100577.47
2023-04-11T17:45:34.914Z,100592.13
2023-04-11T17:48:23.102Z,100599.28
2023-04-11T17:51:09.781Z,100608.19
2023-04-11T17:53:56.506Z,100609.38
2023-04-11T17:56:44.516Z,100608.28
2023-04-11T17:59:31.633Z,100620.03
2023-04-11T18:02:18.179Z,100621.22
2023-04-11T18:05:13.272Z,100627.25
2023-04-11T18:08:09.638Z,100626.53
2023-04-11T18:10:56.243Z,100634.81
2023-04-11T18:13:46.377Z,100647.31
2023-04-11T18:16:34.682Z,100653.28
2023-04-11T18:19:21.685Z,100652.53
2023-04-11T18:22:08.401Z,100663.09
2023-04-11T18:24:55.318Z,100663.00
2023-04-11T18:27:42.452Z,100656.56
2023-04-11T18:30:30.582Z,100668.84
2023-04-11T18:33:18.374Z,100685.72
2023-04-11T18:36:07.200Z,100677.38
2023-04-11T18:38:53.923Z,100687.31
2023-04-11T18:41:40.650Z,100691.69
2023-04-11T18:44:27.631Z,100685.81
2023-04-11T18:47:17.499Z,100687.78
2023-04-11T18:50:05.001Z,100689.88
2023-04-11T18:52:55.603Z,100705.09
2023-04-11T18:55:43.983Z,100703.53
2023-04-11T18:58:33.352Z,100712.50
2023-04-11T19:01:21.336Z,100707.31
2023-04-11T19:04:11.117Z,100710.22
2023-04-11T19:06:59.113Z,100700.59
2023-04-11T19:09:47.016Z,100712.41
2023-04-11T19:12:33.736Z,100705.59
2023-04-11T19:15:20.611Z,100711.81
2023-04-11T19:18:07.746Z,100711.91
2023-04-11T19:20:55.825Z,100714.59
2023-04-11T19:23:42.787Z,100712.50
2023-04-11T19:26:29.674Z,100710.13
2023-04-11T19:29:17.293Z,100714.09
2023-04-11T19:32:04.324Z,100716.03
2023-04-11T19:34:51.438Z,100718.09
2023-04-11T19:37:41.361Z,100716.16
2023-04-11T19:40:28.507Z,100706.53
2023-04-11T19:43:15.582Z,100705.34
2023-04-11T19:46:03.141Z,100709.25
2023-04-11T19:48:51.570Z,100705.81
2023-04-11T19:51:40.269Z,100708.47
2023-04-11T19:54:31.358Z,100714.00
2023-04-11T19:57:18.808Z,100711.25
2023-04-11T20:00:14.987Z,100703.88
2023-04-11T20:03:05.997Z,100707.84
2023-04-11T20:05:52.853Z,100711.56
2023-04-11T20:08:39.872Z,100707.91
2023-04-11T20:11:29.244Z,100706.41
2023-04-11T20:14:15.897Z,100711.03
2023-04-11T20:17:02.749Z,100713.97
2023-04-11T20:19:53.078Z,100684.75
2023-04-11T20:22:40.511Z,100723.13
2023-04-11T20:25:27.321Z,100729.22
2023-04-11T20:28:15.514Z,100732.56
2023-04-11T20:31:04.390Z,100733.59
2023-04-11T20:33:51.311Z,100726.81
2023-04-11T20:36:38.090Z,100727.78
2023-04-11T20:39:24.728Z,100728.69
2023-04-11T20:42:12.411Z,100725.00
2023-04-11T20:45:19.124Z,100726.09
2023-04-11T20:48:12.998Z,100737.53
2023-04-11T20:51:01.848Z,100738.72
2023-04-11T20:53:50.880Z,100740.59
2023-04-11T20:56:40.073Z,100736.22
2023-04-11T20:59:36.462Z,100731.94
2023-04-11T21:02:30.683Z,100727.63
2023-04-11T21:05:21.455Z,100723.19
2023-04-11T21:08:10.320Z,100731.00
2023-04-11T21:11:01.486Z,100721.16
2023-04-11T21:13:54.268Z,100711.81
2023-04-11T21:16:45.729Z,100722.00
2023-04-11T21:19:38.374Z,100726.44
2023-04-11T21:22:29.961Z,100734.47
2023-04-11T21:25:20.153Z,100726.03
2023-04-11T21:28:08.773Z,100721.09
2023-04-11T21:30:57.499Z,100729.97
2023-04-11T21:33:48.739Z,100729.19
2023-04-11T21:36:40.798Z,100742.72
2023-04-11T21:39:29.996Z,100739.38
2023-04-11T21:42:18.706Z,100743.94
2023-04-11T21:45:12.025Z,100750.06
2023-04-11T21:48:01.210Z,100744.75
2023-04-11T21:50:51.560Z,100742.25
2023-04-11T21:53:43.364Z,100755.50
2023-04-11T21:56:32.913Z,100753.69
2023-04-11T21:59:26.028Z,100760.09
2023-04-11T22:02:19.629Z,100758.44
2023-04-11T22:05:12.789Z,100754.94
2023-04-11T22:08:15.422Z,100764.63
2023-04-11T22:11:14.978Z,100769.88
2023-04-11T22:14:08.089Z,100759.56
2023-04-11T22:16:59.512Z,100764.81
2023-04-11T22:19:51.219Z,100755.16
2023-04-11T22:22:42.479Z,100774.56
2023-04-11T22:25:33.202Z,100774.63
2023-04-11T22:28:25.905Z,100764.09
2023-04-11T22:31:16.832Z,100768.63
2023-04-11T22:34:09.388Z,100773.16
2023-04-11T22:37:00.278Z,100769.56
2023-04-11T22:39:52.113Z,100763.44
2023-04-11T22:42:40.936Z,100759.00
2023-04-11T22:45:46.078Z,100714.06
2023-04-11T22:48:37.531Z,100759.44
2023-04-11T22:51:34.139Z,100756.81
2023-04-11T22:54:34.700Z,100764.50
2023-04-11T22:57:26.505Z,100764.53
2023-04-11T23:00:17.044Z,100760.31
2023-04-11T23:03:07.799Z,100760.31
2023-04-11T23:05:55.592Z,100761.28
2023-04-11T23:08:43.692Z,100758.53
2023-04-11T23:11:31.933Z,100768.31
2023-04-11T23:14:21.417Z,100776.28
2023-04-11T23:17:09.388Z,100771.97
2023-04-11T23:20:00.070Z,100757.97
2023-04-11T23:22:46.612Z,100756.34
2023-04-11T23:25:39.959Z,100760.69
2023-04-11T23:28:28.596Z,100723.31
2023-04-11T23:31:17.980Z,100751.09
2023-04-11T23:34:04.669Z,100764.25
2023-04-11T23:36:53.950Z,100752.94
2023-04-11T23:39:41.179Z,100751.25
2023-04-11T23:42:28.930Z,100752.09
2023-04-11T23:45:20.882Z,100759.22
2023-04-11T23:48:07.951Z,100746.06
2023-04-11T23:50:55.455Z,100739.13
2023-04-11T23:53:46.033Z,100737.44
2023-04-11T23:56:34.204Z,100737.47
2023-04-11T23:59:21.200Z,100736.63
